Time;durP1;ratioP1;P1;durP2;ratioP2;P2;SDS_P1;SDS_P2;PMS_P1;PMS_P2;Temp;Humidity;BMP_temperature;BMP_pressure;BME280_temperature;BME280_humidity;BME280_pressure;Samples;Min_cycle;Max_cycle;Signal;HPM_P1;HPM_P2
2021/08/03 00:01:32;;;;;;;7.63;5.00;;;;;;;15.47;67.37;99893.38;153960;1100;103467;-73
2021/08/03 00:04:41;;;;;;;7.00;5.10;;;;;;;15.42;67.48;99887.78;153950;1100;103139;-72
2021/08/03 00:07:46;;;;;;;5.17;4.40;;;;;;;15.34;67.58;99895.95;153988;1094;103188;-74
2021/08/03 00:10:50;;;;;;;5.70;4.23;;;;;;;15.28;67.64;99895.72;154006;1093;103129;-72
2021/08/03 00:13:53;;;;;;;5.30;4.00;;;;;;;15.24;67.55;99894.45;154002;1100;103187;-72
2021/08/03 00:16:59;;;;;;;6.60;4.43;;;;;;;15.20;67.71;99903.89;153946;1100;103123;-74
2021/08/03 00:20:02;;;;;;;6.35;4.50;;;;;;;15.16;67.92;99899.92;154031;1100;103196;-73
2021/08/03 00:23:05;;;;;;;6.47;4.50;;;;;;;15.15;67.76;99897.45;153958;1100;103189;-72
2021/08/03 00:26:11;;;;;;;5.87;4.67;;;;;;;15.12;67.80;99904.84;154009;1100;103133;-73
2021/08/03 00:29:16;;;;;;;6.60;4.53;;;;;;;15.08;67.49;99908.94;154028;1093;103195;-73
2021/08/03 00:32:19;;;;;;;6.47;4.93;;;;;;;15.05;67.55;99900.43;153973;1101;103151;-73
2021/08/03 00:35:22;;;;;;;6.77;4.13;;;;;;;15.00;67.77;99910.94;154017;1101;103204;-73
2021/08/03 00:38:25;;;;;;;7.30;3.80;;;;;;;14.91;67.59;99903.00;153933;1093;103269;-73
2021/08/03 00:41:30;;;;;;;4.78;3.18;;;;;;;14.90;67.80;99912.07;153982;1100;103186;-73
2021/08/03 00:44:44;;;;;;;6.43;3.70;;;;;;;14.91;67.76;99911.06;153956;1093;103193;-74
2021/08/03 00:47:49;;;;;;;5.95;4.00;;;;;;;14.86;67.60;99910.79;153960;1094;103197;-74
2021/08/03 00:50:51;;;;;;;6.90;4.87;;;;;;;14.80;67.85;99911.55;153957;1093;103118;-71
2021/08/03 00:53:55;;;;;;;6.33;4.27;;;;;;;14.76;67.92;99910.27;153931;1100;103296;-74
2021/08/03 00:56:59;;;;;;;5.70;4.30;;;;;;;14.72;67.82;99909.81;153958;1093;103129;-73
2021/08/03 01:00:04;;;;;;;7.00;4.77;;;;;;;14.63;67.46;99910.11;153985;1100;103192;-73
2021/08/03 01:03:08;;;;;;;5.15;4.30;;;;;;;14.61;67.91;99912.16;153941;1100;103195;-72
2021/08/03 01:06:18;;;;;;;5.43;3.73;;;;;;;14.57;67.63;99926.94;153972;1093;103122;-73
2021/08/03 01:09:28;;;;;;;6.28;3.33;;;;;;;14.51;67.80;99918.61;153971;1093;103279;-73
2021/08/03 01:12:44;;;;;;;3.88;3.03;;;;;;;14.49;67.83;99920.65;154044;1093;103186;-73
2021/08/03 01:15:55;;;;;;;4.60;3.33;;;;;;;14.49;67.65;99926.02;153934;1093;103125;-74
2021/08/03 01:19:13;;;;;;;7.40;3.38;;;;;;;14.48;67.68;99929.70;153945;1100;104551;-73
2021/08/03 01:22:32;;;;;;;6.30;3.47;;;;;;;14.48;67.77;99928.88;153996;1093;103159;-73
2021/08/03 01:25:43;;;;;;;5.38;3.50;;;;;;;14.45;67.75;99923.88;153988;1093;103283;-73
2021/08/03 01:28:51;;;;;;;6.43;3.67;;;;;;;14.42;67.98;99919.72;154013;1091;103096;-73
2021/08/03 01:32:02;;;;;;;4.80;3.93;;;;;;;14.39;67.79;99917.40;153970;1101;103203;-72
2021/08/03 01:35:09;;;;;;;6.50;3.97;;;;;;;14.35;67.87;99918.80;153935;1100;103049;-73
2021/08/03 01:38:13;;;;;;;5.63;4.13;;;;;;;14.24;68.04;99922.79;153949;1100;103187;-73
2021/08/03 01:41:18;;;;;;;5.35;4.10;;;;;;;14.20;68.02;99920.64;154013;1100;103249;-73
2021/08/03 01:44:22;;;;;;;7.05;4.20;;;;;;;14.21;68.37;99930.38;154006;1093;103120;-73
2021/08/03 01:47:27;;;;;;;7.80;4.20;;;;;;;14.21;68.23;99922.33;153986;1093;103192;-72
2021/08/03 01:50:32;;;;;;;7.60;4.80;;;;;;;14.24;68.03;99927.30;153985;1093;103563;-73
2021/08/03 01:53:38;;;;;;;7.17;4.50;;;;;;;14.26;68.30;99930.63;154006;1093;103118;-73
2021/08/03 01:56:45;;;;;;;5.83;4.63;;;;;;;14.25;68.38;99923.62;153979;1093;103276;-72
2021/08/03 01:59:52;;;;;;;13.08;4.40;;;;;;;14.20;68.20;99937.57;154046;1101;103247;-73
2021/08/03 02:02:55;;;;;;;6.97;4.80;;;;;;;14.16;68.66;99935.45;153975;1100;103192;-73
2021/08/03 02:05:59;;;;;;;6.65;5.00;;;;;;;14.12;68.51;99940.34;153919;1100;103163;-72
2021/08/03 02:09:07;;;;;;;7.77;5.10;;;;;;;14.09;68.68;99943.42;153979;1093;103190;-73
2021/08/03 02:12:11;;;;;;;6.53;4.47;;;;;;;14.06;68.48;99949.97;153966;1093;103131;-73
2021/08/03 02:15:14;;;;;;;7.75;4.15;;;;;;;14.07;68.52;99940.91;154000;1093;103122;-73
2021/08/03 02:18:18;;;;;;;5.23;4.13;;;;;;;14.05;68.55;99942.95;153944;1100;103096;-73
2021/08/03 02:21:27;;;;;;;5.15;3.80;;;;;;;14.03;68.50;99942.30;153962;1100;103148;-73
2021/08/03 02:24:30;;;;;;;4.95;4.10;;;;;;;13.98;68.65;99942.00;153965;1100;103187;-73
2021/08/03 02:27:33;;;;;;;7.00;4.73;;;;;;;13.95;68.50;99945.04;154007;1100;103222;-72
2021/08/03 02:30:37;;;;;;;5.07;3.90;;;;;;;13.94;68.50;99946.08;153995;1100;103189;-73
2021/08/03 02:33:48;;;;;;;4.83;3.78;;;;;;;13.90;68.45;99942.09;153990;1093;103130;-72
2021/08/03 02:36:57;;;;;;;7.30;3.90;;;;;;;13.84;68.42;99949.02;153926;1093;103263;-72
2021/08/03 02:40:04;;;;;;;4.60;3.20;;;;;;;13.81;68.43;99959.27;153997;1093;103189;-74
2021/08/03 02:43:07;;;;;;;3.15;2.80;;;;;;;13.76;68.52;99954.46;153984;1100;103569;-73
2021/08/03 02:46:14;;;;;;;5.43;2.90;;;;;;;13.75;68.54;99967.02;153951;1100;103151;-72
2021/08/03 02:49:27;;;;;;;4.60;3.33;;;;;;;13.72;68.43;99959.34;153976;1094;103238;-73
2021/08/03 02:52:31;;;;;;;4.03;3.35;;;;;;;13.70;68.58;99965.89;154006;1100;103141;-73
2021/08/03 02:55:40;;;;;;;5.15;3.80;;;;;;;13.63;68.42;99964.97;154026;1093;103125;-72
2021/08/03 02:58:48;;;;;;;7.33;3.33;;;;;;;13.54;68.71;99956.96;154040;1093;103150;-73
2021/08/03 03:01:54;;;;;;;3.80;3.10;;;;;;;13.47;68.53;99968.58;154135;1094;103138;-75
2021/08/03 03:05:03;;;;;;;6.63;3.60;;;;;;;13.42;68.35;99970.98;154009;1100;103112;-74
2021/08/03 03:08:10;;;;;;;4.13;3.18;;;;;;;13.37;68.27;99968.00;153984;1100;103129;-73
2021/08/03 03:11:15;;;;;;;3.70;3.27;;;;;;;13.27;68.23;99974.38;153999;1100;103133;-71
2021/08/03 03:14:19;;;;;;;3.38;2.85;;;;;;;13.22;68.21;99970.56;153906;1093;103205;-73
2021/08/03 03:17:25;;;;;;;2.90;2.60;;;;;;;13.21;68.51;99971.59;154035;1100;103193;-73
2021/08/03 03:20:31;;;;;;;4.40;3.23;;;;;;;13.23;68.41;99978.44;153983;1100;103100;-73
2021/08/03 03:23:36;;;;;;;5.83;3.97;;;;;;;13.25;68.71;99984.45;153958;1100;103117;-74
2021/08/03 03:26:42;;;;;;;5.40;4.25;;;;;;;13.29;68.30;99990.29;154054;1100;103084;-73
2021/08/03 03:29:50;;;;;;;6.00;4.38;;;;;;;13.28;67.89;99986.78;153970;1093;103285;-73
2021/08/03 03:33:01;;;;;;;5.88;4.30;;;;;;;13.28;68.19;99992.14;154045;1093;103158;-72
2021/08/03 03:36:08;;;;;;;6.38;4.25;;;;;;;13.28;68.31;99992.14;154155;1101;103193;-73
2021/08/03 03:39:13;;;;;;;6.57;3.93;;;;;;;13.30;68.23;99989.33;154075;1094;103186;-73
2021/08/03 03:42:22;;;;;;;6.75;3.80;;;;;;;13.30;68.36;99994.69;154346;1098;103119;-73
2021/08/03 03:45:26;;;;;;;5.58;3.65;;;;;;;13.27;68.47;99995.82;154081;1093;103471;-73
2021/08/03 03:48:34;;;;;;;4.15;2.75;;;;;;;13.29;68.45;99988.44;154083;1093;103134;-73
2021/08/03 03:51:40;;;;;;;3.90;2.90;;;;;;;13.40;68.32;99991.77;153997;1101;103203;-73
2021/08/03 03:54:46;;;;;;;3.80;2.78;;;;;;;13.56;68.48;99997.00;153964;1096;103128;-72
2021/08/03 03:57:51;;;;;;;5.25;3.03;;;;;;;13.79;68.31;99999.67;153966;1094;103481;-72
2021/08/03 04:00:56;;;;;;;4.33;3.10;;;;;;;14.04;68.21;99997.61;153978;1093;103394;-72
2021/08/03 04:04:01;;;;;;;3.40;2.80;;;;;;;14.28;68.20;99999.23;154060;1093;103217;-72
2021/08/03 04:07:04;;;;;;;4.88;2.80;;;;;;;14.46;68.03;100001.55;153989;1093;103099;-74
2021/08/03 04:10:10;;;;;;;5.85;3.00;;;;;;;14.69;68.19;100006.03;153909;1094;103128;-73
2021/08/03 04:13:15;;;;;;;4.00;2.85;;;;;;;14.90;67.99;100000.72;153990;1093;103141;-72
2021/08/03 04:16:18;;;;;;;2.70;2.50;;;;;;;15.09;67.65;100012.73;153908;1101;103230;-74
2021/08/03 04:19:21;;;;;;;3.97;2.43;;;;;;;15.27;67.55;100009.63;153953;1101;103221;-73
2021/08/03 04:22:25;;;;;;;3.37;2.20;;;;;;;15.50;68.06;100014.02;153949;1093;103187;-73
2021/08/03 04:25:28;;;;;;;5.13;2.80;;;;;;;15.75;67.58;100016.36;153931;1101;103195;-72
2021/08/03 04:28:31;;;;;;;3.63;2.50;;;;;;;15.96;67.48;100019.03;153984;1093;103196;-73
2021/08/03 04:31:34;;;;;;;4.40;2.43;;;;;;;16.20;67.67;100016.92;153960;1101;103187;-73
2021/08/03 04:34:36;;;;;;;3.97;2.50;;;;;;;16.42;67.57;100006.95;153957;1101;103164;-72
2021/08/03 04:37:40;;;;;;;3.50;2.70;;;;;;;16.59;67.33;100008.30;153998;1101;103189;-73
2021/08/03 04:40:43;;;;;;;4.73;2.60;;;;;;;16.81;67.12;100017.10;153995;1101;103130;-72
2021/08/03 04:43:46;;;;;;;3.50;2.53;;;;;;;17.02;67.24;100008.11;153965;1101;103135;-73
2021/08/03 04:46:49;;;;;;;4.00;2.90;;;;;;;17.19;66.80;100008.59;153970;1101;103340;-72
2021/08/03 04:49:51;;;;;;;5.07;2.73;;;;;;;17.37;67.30;100005.31;154011;1101;103196;-74
2021/08/03 04:52:56;;;;;;;3.80;2.20;;;;;;;17.57;67.19;100005.38;153975;1101;103181;-74
2021/08/03 04:55:59;;;;;;;3.30;2.50;;;;;;;17.80;66.96;100014.93;154005;1093;103146;-74
2021/08/03 04:59:02;;;;;;;3.63;2.43;;;;;;;17.97;67.13;100013.52;154043;1093;103150;-72
2021/08/03 05:02:05;;;;;;;4.30;2.60;;;;;;;18.16;66.95;100019.95;153950;1101;103155;-73
2021/08/03 05:05:10;;;;;;;3.40;2.63;;;;;;;18.33;66.78;100019.53;153991;1101;103496;-73
2021/08/03 05:08:13;;;;;;;4.55;2.58;;;;;;;18.49;66.70;100010.16;153948;1101;103275;-73
2021/08/03 05:11:15;;;;;;;2.97;2.53;;;;;;;18.60;66.57;100014.91;153922;1101;103213;-73
2021/08/03 05:14:18;;;;;;;2.83;2.43;;;;;;;18.73;66.47;100019.47;153952;1101;103125;-71
2021/08/03 05:17:21;;;;;;;3.53;2.53;;;;;;;18.83;66.48;100028.80;153945;1093;103724;-73
2021/08/03 05:20:24;;;;;;;5.00;2.60;;;;;;;18.93;66.27;100020.23;153989;1093;103125;-73
2021/08/03 05:23:27;;;;;;;3.83;2.47;;;;;;;19.00;66.15;100031.87;153930;1101;103128;-74
2021/08/03 05:26:30;;;;;;;3.10;2.60;;;;;;;19.09;66.01;100028.91;153948;1101;103119;-74
2021/08/03 05:29:33;;;;;;;4.35;2.50;;;;;;;19.15;66.39;100034.31;153992;1093;103464;-73
2021/08/03 05:32:36;;;;;;;3.23;2.47;;;;;;;19.26;65.93;100034.67;153954;1101;103294;-73
2021/08/03 05:35:41;;;;;;;3.33;2.70;;;;;;;19.38;65.55;100030.22;154055;1101;103176;-73
2021/08/03 05:38:43;;;;;;;4.60;2.40;;;;;;;19.54;65.64;100034.32;153925;1101;103200;-72
2021/08/03 05:41:46;;;;;;;5.60;2.50;;;;;;;19.60;65.26;100028.03;153947;1101;103136;-72
2021/08/03 05:44:49;;;;;;;4.30;2.57;;;;;;;19.60;65.26;100026.15;154024;1101;103129;-73
2021/08/03 05:47:52;;;;;;;3.55;2.63;;;;;;;19.65;65.15;100044.46;154012;1093;103730;-73
2021/08/03 05:50:55;;;;;;;4.37;2.90;;;;;;;19.76;64.89;100040.23;154016;1101;103196;-73
2021/08/03 05:53:57;;;;;;;3.50;2.30;;;;;;;19.76;64.90;100041.05;153953;1101;103129;-73
2021/08/03 05:57:00;;;;;;;3.73;2.27;;;;;;;19.80;64.92;100042.30;153989;1101;103141;-74
2021/08/03 06:00:04;;;;;;;5.77;2.40;;;;;;;19.84;64.92;100045.38;154041;1101;103196;-74
2021/08/03 06:03:15;;;;;;;4.50;2.80;;;;;;;19.85;64.73;100049.77;153952;1093;103100;-73
2021/08/03 06:06:21;;;;;;;3.10;2.40;;;;;;;19.84;64.88;100049.97;153907;1093;103195;-71
2021/08/03 06:09:25;;;;;;;3.00;2.53;;;;;;;19.96;64.90;100051.77;153959;1093;103198;-74
2021/08/03 06:12:29;;;;;;;4.00;2.20;;;;;;;20.07;64.32;100054.80;154088;1093;103199;-72
2021/08/03 06:15:38;;;;;;;3.15;2.23;;;;;;;20.17;64.22;100049.74;153997;1101;103112;-73
2021/08/03 06:18:43;;;;;;;3.28;2.18;;;;;;;20.23;64.30;100056.98;154001;1093;103145;-71
2021/08/03 06:21:47;;;;;;;4.03;3.30;;;;;;;20.30;64.23;100049.59;154096;1101;103256;-71
2021/08/03 06:24:49;;;;;;;4.35;2.45;;;;;;;20.45;64.12;100048.44;154084;1098;103148;-73
2021/08/03 06:27:54;;;;;;;4.17;2.13;;;;;;;20.54;64.13;100047.11;154238;1098;103114;-73
2021/08/03 06:30:57;;;;;;;3.25;2.10;;;;;;;20.62;64.04;100043.30;154259;1093;103046;-73
2021/08/03 06:34:01;;;;;;;2.88;2.20;;;;;;;20.78;63.81;100040.84;154039;1100;103125;-73
2021/08/03 06:37:05;;;;;;;3.98;2.55;;;;;;;20.91;63.63;100047.16;153991;1093;103357;-73
2021/08/03 06:40:11;;;;;;;3.85;2.55;;;;;;;21.03;63.45;100045.33;154044;1094;103213;-73
2021/08/03 06:43:18;;;;;;;4.03;2.60;;;;;;;21.16;63.63;100049.78;154452;1093;103208;-72
2021/08/03 06:46:21;;;;;;;3.10;2.30;;;;;;;21.20;63.35;100053.69;154191;1093;103208;-72
2021/08/03 06:49:27;;;;;;;3.73;2.40;;;;;;;21.25;63.50;100056.55;154583;1098;103567;-73
2021/08/03 06:52:33;;;;;;;3.90;2.43;;;;;;;21.30;63.01;100055.86;154559;1098;103268;-72
2021/08/03 06:55:41;;;;;;;5.17;2.60;;;;;;;21.37;63.15;100056.61;154223;1098;103097;-72
2021/08/03 06:58:51;;;;;;;5.13;2.77;;;;;;;21.52;63.26;100064.38;153961;1100;103128;-73
2021/08/03 07:02:02;;;;;;;4.10;2.70;;;;;;;21.63;62.67;100054.61;153905;1100;103101;-72
2021/08/03 07:05:09;;;;;;;3.70;2.58;;;;;;;21.71;62.41;100062.42;154024;1100;103192;-73
2021/08/03 07:08:14;;;;;;;2.93;2.40;;;;;;;21.77;62.21;100061.52;153988;1093;103279;-72
2021/08/03 07:11:19;;;;;;;4.58;2.45;;;;;;;21.83;62.28;100060.59;153980;1100;103123;-72
2021/08/03 07:14:24;;;;;;;4.75;2.55;;;;;;;21.92;62.22;100059.20;153938;1100;103192;-72
2021/08/03 07:17:29;;;;;;;4.60;2.48;;;;;;;22.07;61.84;100068.78;153961;1100;103214;-72
2021/08/03 07:20:32;;;;;;;4.03;2.40;;;;;;;22.15;61.95;100073.87;153926;1100;103120;-72
2021/08/03 07:23:37;;;;;;;4.33;2.37;;;;;;;22.25;61.44;100066.02;153951;1100;103276;-73
2021/08/03 07:26:40;;;;;;;3.37;2.10;;;;;;;22.38;61.77;100070.38;153962;1100;103519;-73
2021/08/03 07:29:43;;;;;;;3.80;2.20;;;;;;;22.50;61.55;100070.41;153977;1100;103192;-73
2021/08/03 07:32:46;;;;;;;3.20;2.40;;;;;;;22.58;61.32;100077.39;153973;1093;103112;-72
2021/08/03 07:35:49;;;;;;;3.53;2.00;;;;;;;22.65;61.10;100073.48;154004;1100;103184;-73
2021/08/03 07:38:54;;;;;;;3.87;1.87;;;;;;;22.69;60.65;100071.94;153961;1100;103316;-72
2021/08/03 07:41:58;;;;;;;3.50;1.77;;;;;;;22.74;60.42;100074.75;154048;1100;103232;-72
2021/08/03 07:45:01;;;;;;;4.17;2.20;;;;;;;22.83;59.87;100068.97;153962;1100;103136;-72
2021/08/03 07:48:04;;;;;;;3.40;1.83;;;;;;;22.98;60.02;100066.58;153984;1100;103203;-72
2021/08/03 07:51:07;;;;;;;4.18;2.10;;;;;;;23.13;59.52;100075.09;153975;1093;103215;-71
2021/08/03 07:54:10;;;;;;;2.60;2.03;;;;;;;23.16;59.60;100067.52;153976;1093;103184;-72
2021/08/03 07:57:12;;;;;;;3.33;1.97;;;;;;;23.30;59.87;100063.44;153970;1094;103134;-72
2021/08/03 08:00:16;;;;;;;3.47;2.00;;;;;;;23.38;59.12;100068.49;154047;1099;103123;-71
2021/08/03 08:03:18;;;;;;;2.85;1.80;;;;;;;23.40;58.51;100069.07;153947;1093;103192;-72
2021/08/03 08:06:21;;;;;;;2.20;1.80;;;;;;;23.44;58.98;100072.99;153996;1100;103211;-72
2021/08/03 08:09:24;;;;;;;2.17;1.80;;;;;;;23.43;58.58;100065.88;153944;1100;103199;-72
2021/08/03 08:12:27;;;;;;;2.88;1.80;;;;;;;23.39;58.19;100064.72;153997;1100;104753;-71
2021/08/03 08:15:30;;;;;;;3.07;2.33;;;;;;;23.37;58.32;100071.48;153944;1093;103119;-71
2021/08/03 08:18:32;;;;;;;3.43;1.97;;;;;;;23.36;58.11;100062.46;153948;1093;103110;-72
2021/08/03 08:21:35;;;;;;;2.83;1.43;;;;;;;23.33;57.08;100065.69;153927;1093;103579;-72
2021/08/03 08:24:38;;;;;;;2.30;1.50;;;;;;;23.31;56.82;100067.83;153983;1093;103157;-72
2021/08/03 08:27:42;;;;;;;2.30;1.50;;;;;;;23.20;56.58;100063.24;154029;1093;103305;-72
2021/08/03 08:30:45;;;;;;;1.98;1.50;;;;;;;23.10;56.95;100067.41;153998;1100;103238;-73
2021/08/03 08:33:48;;;;;;;2.40;1.70;;;;;;;23.12;56.82;100062.55;153976;1100;103135;-72
2021/08/03 08:36:51;;;;;;;1.60;1.30;;;;;;;23.28;56.23;100057.41;153966;1100;103129;-72
2021/08/03 08:39:53;;;;;;;2.83;1.40;;;;;;;23.32;55.88;100059.39;154066;1094;103192;-72
2021/08/03 08:42:56;;;;;;;1.88;1.20;;;;;;;23.27;56.02;100055.77;153953;1100;103245;-72
2021/08/03 08:45:59;;;;;;;2.70;1.37;;;;;;;23.19;55.26;100058.85;153995;1100;103544;-72
2021/08/03 08:49:04;;;;;;;2.30;1.30;;;;;;;23.02;55.30;100062.31;154038;1098;103192;-72
2021/08/03 08:52:07;;;;;;;1.75;1.40;;;;;;;22.93;54.90;100063.74;154125;1098;103594;-73
2021/08/03 08:55:12;;;;;;;2.70;1.20;;;;;;;22.87;55.06;100059.27;154421;1098;103189;-72
2021/08/03 08:58:14;;;;;;;2.73;1.15;;;;;;;22.78;54.93;100061.51;153952;1100;103167;-71
2021/08/03 09:01:17;;;;;;;2.53;1.40;;;;;;;22.72;54.98;100068.73;154248;1098;103121;-74
2021/08/03 09:04:22;;;;;;;2.10;1.50;;;;;;;22.63;54.77;100070.14;153961;1100;103131;-74
2021/08/03 09:07:25;;;;;;;2.53;1.40;;;;;;;22.55;54.63;100063.17;154219;1093;103110;-72
2021/08/03 09:10:36;;;;;;;3.33;1.50;;;;;;;22.52;54.41;100068.28;154084;1093;103260;-72
2021/08/03 09:13:52;;;;;;;2.75;1.58;;;;;;;22.47;54.05;100062.72;154191;1098;103189;-72
2021/08/03 09:16:55;;;;;;;2.17;1.47;;;;;;;22.49;54.30;100053.25;154032;1100;103125;-72
2021/08/03 09:19:58;;;;;;;3.10;1.53;;;;;;;22.42;53.67;100065.30;154093;1094;103216;-71
2021/08/03 09:23:01;;;;;;;2.70;1.50;;;;;;;22.34;53.57;100058.33;154261;1098;103126;-72
2021/08/03 09:26:04;;;;;;;4.10;1.60;;;;;;;22.39;53.76;100058.45;154388;1093;103186;-72
2021/08/03 09:29:09;;;;;;;2.53;1.50;;;;;;;22.42;54.04;100062.59;153958;1093;103202;-73
2021/08/03 09:32:12;;;;;;;2.35;1.40;;;;;;;22.29;52.63;100064.48;153998;1100;103190;-73
2021/08/03 09:35:17;;;;;;;2.43;1.20;;;;;;;22.08;53.10;100059.58;153938;1100;103198;-72
2021/08/03 09:38:21;;;;;;;2.13;1.45;;;;;;;21.96;52.64;100057.67;153962;1100;103181;-72
2021/08/03 09:41:23;;;;;;;2.30;1.57;;;;;;;21.95;52.59;100055.17;153988;1100;103195;-73
2021/08/03 09:44:26;;;;;;;1.70;1.40;;;;;;;21.92;52.92;100061.91;153954;1100;103253;-73
2021/08/03 09:47:30;;;;;;;2.40;1.33;;;;;;;21.95;52.64;100056.00;153946;1093;103207;-73
2021/08/03 09:50:49;;;;;;;3.68;1.35;;;;;;;22.02;52.63;100049.63;153989;1100;103120;-73
2021/08/03 09:53:53;;;;;;;1.85;1.20;;;;;;;22.20;52.66;100046.83;153929;1100;103200;-74
2021/08/03 09:56:56;;;;;;;1.53;1.40;;;;;;;22.39;52.85;100054.92;153986;1100;103208;-72
2021/08/03 09:59:59;;;;;;;2.95;1.40;;;;;;;22.38;51.63;100053.25;153952;1093;103267;-72
2021/08/03 10:03:02;;;;;;;1.70;1.13;;;;;;;22.35;52.30;100058.09;153965;1100;103142;-72
2021/08/03 10:06:05;;;;;;;2.25;1.40;;;;;;;22.43;51.87;100056.09;153953;1101;103133;-72
2021/08/03 10:09:09;;;;;;;2.00;1.53;;;;;;;22.43;50.68;100056.09;153922;1094;103192;-72
2021/08/03 10:12:12;;;;;;;2.50;1.48;;;;;;;22.41;52.15;100067.20;153995;1100;103157;-73
2021/08/03 10:15:15;;;;;;;2.25;1.50;;;;;;;22.44;51.23;100063.17;154027;1101;103284;-72
2021/08/03 10:18:18;;;;;;;2.17;1.40;;;;;;;22.45;50.56;100067.56;153966;1093;103197;-72
2021/08/03 10:21:31;;;;;;;3.53;1.60;;;;;;;22.25;50.30;100052.42;153937;1100;103189;-72
2021/08/03 10:24:35;;;;;;;2.53;1.50;;;;;;;22.14;51.49;100051.31;153991;1100;103221;-72
2021/08/03 10:27:44;;;;;;;4.43;1.53;;;;;;;22.19;50.48;100058.77;154004;1100;103240;-72
2021/08/03 10:30:47;;;;;;;2.30;1.40;;;;;;;22.32;51.19;100058.55;154472;1093;103187;-72
2021/08/03 10:33:50;;;;;;;1.60;1.50;;;;;;;22.51;51.38;100061.99;153960;1093;103130;-72
2021/08/03 10:36:52;;;;;;;2.00;1.50;;;;;;;22.61;50.73;100060.58;154580;1098;103189;-72
2021/08/03 10:39:57;;;;;;;2.30;1.70;;;;;;;22.71;49.81;100055.36;153990;1093;103161;-72
2021/08/03 10:43:15;;;;;;;2.37;1.40;;;;;;;22.87;48.81;100045.66;154015;1094;103135;-73
2021/08/03 10:46:38;;;;;;;3.00;1.50;;;;;;;23.00;49.30;100044.55;154616;1098;103288;-73
2021/08/03 10:49:58;;;;;;;1.50;1.28;;;;;;;23.26;50.19;100040.49;154633;1098;103116;-73
2021/08/03 10:53:03;;;;;;;2.13;1.45;;;;;;;23.28;46.25;100050.06;154632;1098;103150;-73
2021/08/03 10:56:06;;;;;;;4.53;1.60;;;;;;;23.20;49.62;100047.73;154609;1098;103138;-73
2021/08/03 10:59:34;;;;;;;2.40;1.50;;;;;;;23.22;48.80;100039.33;153957;1093;103170;-73
2021/08/03 11:02:45;;;;;;;1.70;1.28;;;;;;;23.10;47.69;100039.37;153950;1093;103197;-73
2021/08/03 11:05:47;;;;;;;;;;;;;;;23.18;48.96;100038.16;154645;1098;103199;-71
2021/08/03 11:08:50;;;;;;;3.17;1.40;;;;;;;23.24;48.91;100048.08;153930;1100;103115;-72
2021/08/03 11:11:53;;;;;;;1.50;1.40;;;;;;;23.37;49.50;100046.98;154586;1098;104688;-72
2021/08/03 11:14:55;;;;;;;2.37;1.50;;;;;;;23.62;49.81;100041.18;154007;1093;103177;-72
2021/08/03 11:18:00;;;;;;;2.27;1.50;;;;;;;23.83;49.52;100035.05;154660;1098;103567;-73
2021/08/03 11:21:04;;;;;;;3.77;1.80;;;;;;;23.70;48.81;100029.88;154031;1094;103120;-71
2021/08/03 11:24:11;;;;;;;2.63;1.80;;;;;;;23.55;48.97;100043.22;154130;1093;103191;-72
2021/08/03 11:27:27;;;;;;;2.67;1.47;;;;;;;23.39;48.01;100032.04;154078;1101;103189;-72
2021/08/03 11:30:31;;;;;;;2.23;1.40;;;;;;;23.22;47.82;100031.98;154095;1093;103145;-72
2021/08/03 11:33:34;;;;;;;3.13;1.55;;;;;;;23.11;46.95;100022.80;153965;1101;103220;-72
2021/08/03 11:36:37;;;;;;;2.10;1.80;;;;;;;23.08;47.39;100022.45;153995;1094;103136;-71
2021/08/03 11:39:44;;;;;;;3.33;1.50;;;;;;;23.15;47.39;100025.02;153972;1094;103205;-71
2021/08/03 11:42:48;;;;;;;2.20;1.60;;;;;;;23.21;47.04;100022.17;153976;1093;103100;-72
2021/08/03 11:45:51;;;;;;;1.98;1.63;;;;;;;23.37;45.69;100015.13;154116;1096;103182;-72
2021/08/03 11:49:04;;;;;;;1.97;1.77;;;;;;;23.48;46.03;100011.52;153944;1101;103293;-71
2021/08/03 11:52:17;;;;;;;4.48;2.30;;;;;;;23.75;45.47;100013.63;153976;1101;103139;-71
2021/08/03 11:55:19;;;;;;;2.23;1.48;;;;;;;23.87;45.61;99992.61;153997;1093;103122;-71
2021/08/03 11:58:23;;;;;;;3.00;2.30;;;;;;;23.81;46.91;100009.13;153980;1093;103136;-71
2021/08/03 12:01:46;;;;;;;1.90;1.50;;;;;;;23.75;46.69;100000.02;153970;1094;103215;-71
2021/08/03 12:05:08;;;;;;;2.47;1.80;;;;;;;23.67;46.90;100003.12;153983;1101;103248;-72
2021/08/03 12:08:12;;;;;;;1.70;1.60;;;;;;;23.61;47.17;99991.30;154007;1101;103111;-72
2021/08/03 12:11:23;;;;;;;2.63;2.20;;;;;;;23.77;46.95;99983.39;153946;1101;103369;-72
2021/08/03 12:14:34;;;;;;;2.25;1.70;;;;;;;23.81;47.12;99992.78;153955;1101;103212;-71
2021/08/03 12:17:38;;;;;;;1.60;1.43;;;;;;;23.97;46.81;99986.49;153975;1101;103144;-72
2021/08/03 12:20:42;;;;;;;2.23;1.60;;;;;;;24.06;46.70;99981.47;153973;1101;103551;-72
2021/08/03 12:23:45;;;;;;;2.05;1.40;;;;;;;24.21;46.67;99992.60;153993;1101;103145;-72
2021/08/03 12:26:48;;;;;;;1.90;1.60;;;;;;;24.39;45.96;99980.58;153992;1093;103131;-72
2021/08/03 12:29:51;;;;;;;2.47;1.50;;;;;;;24.58;46.53;99975.69;153951;1093;103189;-71
2021/08/03 12:32:53;;;;;;;1.87;1.50;;;;;;;24.68;44.83;99972.27;153977;1093;103186;-71
2021/08/03 12:36:04;;;;;;;1.60;1.40;;;;;;;24.77;45.97;99980.82;153899;1101;103170;-71
2021/08/03 12:39:10;;;;;;;2.30;1.27;;;;;;;24.94;45.78;99976.12;154086;1101;103193;-71
2021/08/03 12:42:19;;;;;;;4.23;1.40;;;;;;;24.96;45.55;99975.87;153966;1093;103195;-72
2021/08/03 12:45:23;;;;;;;1.53;1.30;;;;;;;24.82;45.44;99973.52;153997;1093;103213;-71
2021/08/03 12:48:28;;;;;;;3.57;1.50;;;;;;;24.85;45.47;99977.67;154026;1101;103196;-72
2021/08/03 12:51:33;;;;;;;1.85;1.48;;;;;;;24.93;45.73;99977.21;153940;1101;103283;-72
2021/08/03 12:54:35;;;;;;;1.67;1.47;;;;;;;25.08;45.75;99974.66;154015;1093;103213;-72
2021/08/03 12:57:46;;;;;;;3.57;1.60;;;;;;;25.17;45.59;99971.47;153917;1094;103187;-72
2021/08/03 13:00:49;;;;;;;1.77;1.30;;;;;;;25.12;45.07;99968.70;153970;1101;103097;-72
2021/08/03 13:03:53;;;;;;;1.80;1.37;;;;;;;25.09;44.90;99967.28;154003;1094;103244;-72
2021/08/03 13:06:58;;;;;;;1.75;1.40;;;;;;;25.05;45.35;99966.97;153950;1093;103503;-72
2021/08/03 13:10:00;;;;;;;2.03;1.50;;;;;;;24.89;44.82;99965.16;154004;1101;103198;-72
2021/08/03 13:13:04;;;;;;;2.30;1.60;;;;;;;24.70;45.44;99956.47;153963;1101;103196;-72
2021/08/03 13:16:08;;;;;;;3.00;1.57;;;;;;;24.60;44.86;99962.63;153973;1094;103320;-72
2021/08/03 13:19:10;;;;;;;1.93;1.33;;;;;;;24.43;44.96;99961.81;153941;1094;103129;-72
2021/08/03 13:22:13;;;;;;;2.95;1.40;;;;;;;24.47;45.49;99962.95;153980;1101;103272;-72
2021/08/03 13:25:16;;;;;;;1.87;1.27;;;;;;;24.62;44.78;99949.55;154009;1096;103195;-72
2021/08/03 13:28:19;;;;;;;1.83;1.30;;;;;;;24.65;45.35;99948.21;153949;1101;103151;-72
2021/08/03 13:31:21;;;;;;;1.93;1.47;;;;;;;24.76;44.88;99951.90;153961;1093;103119;-72
2021/08/03 13:34:24;;;;;;;1.90;1.53;;;;;;;24.79;44.82;99945.91;153970;1101;103147;-73
2021/08/03 13:37:27;;;;;;;2.28;1.30;;;;;;;24.89;44.34;99938.69;154032;1101;103184;-72
2021/08/03 13:40:30;;;;;;;2.18;1.38;;;;;;;24.90;44.65;99939.50;153932;1093;103263;-72
2021/08/03 13:43:32;;;;;;;2.23;1.40;;;;;;;24.75;44.25;99940.17;154038;1093;103195;-72
2021/08/03 13:46:35;;;;;;;2.43;1.33;;;;;;;24.39;43.43;99938.86;153963;1101;103113;-72
2021/08/03 13:49:38;;;;;;;2.07;1.40;;;;;;;24.06;44.40;99940.58;153941;1093;103192;-72
2021/08/03 13:52:41;;;;;;;1.50;1.30;;;;;;;24.00;44.16;99938.83;153993;1101;103212;-72
2021/08/03 13:55:43;;;;;;;1.40;1.30;;;;;;;23.89;44.16;99932.41;153957;1094;103344;-72
2021/08/03 13:58:46;;;;;;;1.80;1.40;;;;;;;23.96;44.94;99935.80;154026;1101;103139;-71
2021/08/03 14:01:50;;;;;;;1.93;1.57;;;;;;;24.01;44.24;99922.23;154026;1101;103192;-72
2021/08/03 14:04:52;;;;;;;2.70;1.37;;;;;;;23.99;44.59;99918.94;154019;1093;103099;-72